createdAt,value
2019-02-14T00:00:41.063Z,96465.89
2019-02-14T00:03:10.713Z,96473.73
2019-02-14T00:05:40.377Z,96471.06
2019-02-14T00:08:10.057Z,96469.92
2019-02-14T00:10:39.846Z,96461.28
2019-02-14T00:13:09.534Z,96462.74
2019-02-14T00:15:39.229Z,96461.91
2019-02-14T00:18:08.868Z,96458.26
2019-02-14T00:20:38.546Z,96464.77
2019-02-14T00:23:08.184Z,96460.10
2019-02-14T00:25:37.784Z,96460.39
2019-02-14T00:28:07.475Z,96461.19
2019-02-14T00:30:37.093Z,96465.25
2019-02-14T00:33:06.841Z,96447.53
2019-02-14T00:35:36.410Z,96440.55
2019-02-14T00:38:06.022Z,96443.50
2019-02-14T00:40:35.824Z,96447.66
2019-02-14T00:43:05.453Z,96452.48
2019-02-14T00:45:36.897Z,96448.48
2019-02-14T00:48:06.511Z,96455.54
2019-02-14T00:50:36.317Z,96448.20
2019-02-14T00:53:05.934Z,96443.84
2019-02-14T00:55:35.626Z,96448.04
2019-02-14T00:58:05.245Z,96448.58
2019-02-14T01:00:34.972Z,96455.59
2019-02-14T01:03:04.670Z,96447.91
2019-02-14T01:05:34.373Z,96445.24
2019-02-14T01:08:04.178Z,96450.39
2019-02-14T01:10:33.820Z,96437.23
2019-02-14T01:13:03.506Z,96437.59
2019-02-14T01:15:34.416Z,96436.57
2019-02-14T01:18:04.071Z,96433.05
2019-02-14T01:20:33.760Z,96430.89
2019-02-14T01:23:03.379Z,96432.89
2019-02-14T01:25:33.077Z,96425.08
2019-02-14T01:28:02.619Z,96432.28
2019-02-14T01:30:32.394Z,96421.77
2019-02-14T01:33:02.105Z,96418.94
2019-02-14T01:35:31.839Z,96414.11
2019-02-14T01:38:01.473Z,96412.43
2019-02-14T01:40:31.053Z,96413.63
2019-02-14T01:43:00.905Z,96416.94
2019-02-14T01:45:30.577Z,96414.27
2019-02-14T01:48:00.267Z,96410.78
2019-02-14T01:50:29.905Z,96414.27
2019-02-14T01:52:59.592Z,96415.29
2019-02-14T01:55:29.302Z,96421.28
2019-02-14T01:57:59.028Z,96430.62
2019-02-14T02:00:28.718Z,96420.46
2019-02-14T02:02:58.399Z,96431.64
2019-02-14T02:05:28.150Z,96422.30
2019-02-14T02:07:57.775Z,96405.63
2019-02-14T02:10:27.498Z,96398.14
2019-02-14T02:12:57.091Z,96402.78
2019-02-14T02:15:26.786Z,96411.95
2019-02-14T02:17:56.525Z,96395.31
2019-02-14T02:20:33.167Z,96396.30
2019-02-14T02:22:57.637Z,96401.13
2019-02-14T02:25:27.466Z,96399.31
2019-02-14T02:27:57.211Z,96395.78
2019-02-14T02:30:26.990Z,96390.13
2019-02-14T02:32:56.723Z,96394.96
2019-02-14T02:35:26.318Z,96386.30
2019-02-14T02:37:56.127Z,96384.93
2019-02-14T02:40:25.778Z,96383.31
2019-02-14T02:42:55.445Z,96379.95
2019-02-14T02:45:25.084Z,96376.11
2019-02-14T02:47:54.869Z,96377.59
2019-02-14T02:50:24.498Z,96373.63
2019-02-14T02:52:54.221Z,96378.61
2019-02-14T02:55:23.924Z,96379.75
2019-02-14T02:57:53.605Z,96389.63
2019-02-14T03:00:23.356Z,96390.27
2019-02-14T03:02:52.973Z,96394.14
2019-02-14T03:05:22.745Z,96395.31
2019-02-14T03:07:52.449Z,96398.27
2019-02-14T03:10:22.175Z,96407.77
2019-02-14T03:12:51.825Z,96413.98
2019-02-14T03:15:21.485Z,96420.46
2019-02-14T03:17:51.117Z,96427.48
2019-02-14T03:20:20.717Z,96431.16
2019-02-14T03:22:50.441Z,96428.27
2019-02-14T03:25:19.947Z,96426.27
2019-02-14T03:27:49.669Z,96428.63
2019-02-14T03:30:19.358Z,96426.14
2019-02-14T03:32:49.054Z,96421.98
2019-02-14T03:35:18.858Z,96415.31
2019-02-14T03:37:48.594Z,96417.98
2019-02-14T03:40:18.317Z,96405.95
2019-02-14T03:42:47.916Z,96400.14
2019-02-14T03:45:18.073Z,96412.14
2019-02-14T03:47:47.720Z,96406.45
2019-02-14T03:50:17.428Z,96396.83
2019-02-14T03:52:47.208Z,96397.52
2019-02-14T03:55:16.955Z,96396.00
2019-02-14T03:57:46.695Z,96404.86
2019-02-14T04:00:16.628Z,96396.33
2019-02-14T04:02:46.316Z,96403.34
2019-02-14T04:05:16.052Z,96401.66
2019-02-14T04:07:45.641Z,96402.32
2019-02-14T04:10:15.440Z,96400.99
2019-02-14T04:12:45.169Z,96395.16
2019-02-14T04:15:15.845Z,96397.98
2019-02-14T04:17:45.699Z,96399.62
2019-02-14T04:20:15.423Z,96397.95
2019-02-14T04:22:45.120Z,96406.45
2019-02-14T04:25:14.820Z,96406.83
2019-02-14T04:27:44.614Z,96400.14
2019-02-14T04:30:14.451Z,96401.66
2019-02-14T04:32:44.189Z,96400.01
2019-02-14T04:35:13.982Z,96401.81
2019-02-14T04:37:43.602Z,96397.98
2019-02-14T04:40:13.604Z,96396.45
2019-02-14T04:42:43.342Z,96395.13
2019-02-14T04:45:13.125Z,96397.44
2019-02-14T04:47:43.141Z,96395.98
2019-02-14T04:50:12.849Z,96388.33
2019-02-14T04:52:42.565Z,96390.64
2019-02-14T04:55:12.288Z,96387.79
2019-02-14T04:57:41.986Z,96393.63
2019-02-14T05:00:12.083Z,96393.63
2019-02-14T05:02:41.705Z,96393.13
2019-02-14T05:05:12.867Z,96393.31
2019-02-14T05:07:42.690Z,96391.98
2019-02-14T05:10:12.408Z,96393.66
2019-02-14T05:12:42.227Z,96389.02
2019-02-14T05:15:11.941Z,96385.02
2019-02-14T05:17:41.537Z,96383.66
2019-02-14T05:20:11.440Z,96390.61
2019-02-14T05:22:41.067Z,96390.08
2019-02-14T05:25:10.751Z,96401.81
2019-02-14T05:27:40.355Z,96399.52
2019-02-14T05:30:11.350Z,96412.38
2019-02-14T05:32:40.927Z,96411.03
2019-02-14T05:35:10.524Z,96411.19
2019-02-14T05:37:40.145Z,96416.17
2019-02-14T05:40:10.323Z,96427.70
2019-02-14T05:42:40.089Z,96427.54
2019-02-14T05:45:10.641Z,96425.02
2019-02-14T05:47:40.410Z,96419.36
2019-02-14T05:50:10.363Z,96423.53
2019-02-14T05:52:40.051Z,96420.02
2019-02-14T05:55:10.769Z,96434.52
2019-02-14T05:57:40.504Z,96426.83
2019-02-14T06:00:12.117Z,96423.90
2019-02-14T06:02:42.348Z,96439.05
2019-02-14T06:05:12.619Z,96428.86
2019-02-14T06:07:44.409Z,96431.63
2019-02-14T06:10:14.606Z,96430.75
2019-02-14T06:12:44.765Z,96422.09
2019-02-14T06:15:16.331Z,96423.74
2019-02-14T06:17:46.395Z,96426.40
2019-02-14T06:20:16.614Z,96429.69
2019-02-14T06:22:48.255Z,96430.02
2019-02-14T06:25:19.100Z,96426.18
2019-02-14T06:27:49.336Z,96433.70
2019-02-14T06:30:19.609Z,96426.33
2019-02-14T06:32:49.584Z,96427.04
2019-02-14T06:35:20.899Z,96427.84
2019-02-14T06:37:54.533Z,96438.02
2019-02-14T06:40:27.406Z,96434.00
2019-02-14T06:43:01.363Z,96432.46
2019-02-14T06:45:34.873Z,96440.57
2019-02-14T06:48:09.720Z,96430.41
2019-02-14T06:50:39.423Z,96435.72
2019-02-14T06:53:09.348Z,96433.39
2019-02-14T06:55:41.041Z,96440.41
2019-02-14T06:58:13.527Z,96425.17
2019-02-14T07:00:45.140Z,96424.50
2019-02-14T07:03:18.498Z,96416.88
2019-02-14T07:05:52.647Z,96418.91
2019-02-14T07:08:22.690Z,96418.59
2019-02-14T07:10:54.131Z,96412.56
2019-02-14T07:13:25.352Z,96412.75
2019-02-14T07:15:55.248Z,96418.27
2019-02-14T07:18:25.142Z,96408.94
2019-02-14T07:20:55.735Z,96409.80
2019-02-14T07:23:26.627Z,96401.77
2019-02-14T07:25:56.736Z,96398.62
2019-02-14T07:28:27.614Z,96401.95
2019-02-14T07:30:57.794Z,96389.79
2019-02-14T07:33:27.858Z,96381.44
2019-02-14T07:35:57.785Z,96375.41
2019-02-14T07:38:27.571Z,96385.22
2019-02-14T07:40:57.641Z,96382.61
2019-02-14T07:43:27.398Z,96372.80
2019-02-14T07:45:57.465Z,96368.98
2019-02-14T07:48:27.377Z,96362.01
2019-02-14T07:50:58.854Z,96362.33
2019-02-14T07:53:28.674Z,96361.02
2019-02-14T07:55:58.908Z,96354.52
2019-02-14T07:58:29.051Z,96350.98
2019-02-14T08:01:00.379Z,96358.64
2019-02-14T08:03:30.503Z,96348.52
2019-02-14T08:06:00.552Z,96342.95
2019-02-14T08:08:30.730Z,96344.29
2019-02-14T08:11:00.821Z,96340.92
2019-02-14T08:13:30.825Z,96344.25
2019-02-14T08:16:00.767Z,96344.09
2019-02-14T08:18:30.978Z,96331.66
2019-02-14T08:21:00.964Z,96333.15
2019-02-14T08:23:32.052Z,96332.13
2019-02-14T08:26:10.414Z,96328.98
2019-02-14T08:28:33.719Z,96333.66
2019-02-14T08:31:04.104Z,96326.33
2019-02-14T08:33:37.401Z,96330.95
2019-02-14T08:36:07.913Z,96335.91
2019-02-14T08:38:39.860Z,96331.27
2019-02-14T08:41:10.125Z,96331.39
2019-02-14T08:43:40.308Z,96323.97
2019-02-14T08:46:11.586Z,96326.33
2019-02-14T08:48:44.096Z,96331.14
2019-02-14T08:51:13.783Z,96326.52
2019-02-14T08:53:43.486Z,96313.97
2019-02-14T08:56:13.302Z,96318.95
2019-02-14T08:58:43.034Z,96315.91
2019-02-14T09:01:12.827Z,96316.70
2019-02-14T09:03:42.454Z,96323.36
2019-02-14T09:06:12.214Z,96312.48
2019-02-14T09:08:41.983Z,96316.98
2019-02-14T09:11:11.671Z,96303.75
2019-02-14T09:13:41.368Z,96307.59
2019-02-14T09:16:11.212Z,96296.39
2019-02-14T09:18:40.905Z,96289.35
2019-02-14T09:21:10.574Z,96288.17
2019-02-14T09:23:40.329Z,96293.49
2019-02-14T09:26:09.958Z,96284.09
2019-02-14T09:28:39.576Z,96283.42
2019-02-14T09:31:09.358Z,96283.56
2019-02-14T09:33:38.995Z,96284.86
2019-02-14T09:36:08.871Z,96281.14
2019-02-14T09:38:38.497Z,96271.81
2019-02-14T09:41:08.193Z,96277.79
2019-02-14T09:43:38.020Z,96263.22
2019-02-14T09:46:07.656Z,96260.52
2019-02-14T09:48:37.481Z,96260.98
2019-02-14T09:51:07.073Z,96257.12
2019-02-14T09:53:36.688Z,96250.27
2019-02-14T09:56:07.856Z,96256.23
2019-02-14T09:58:37.613Z,96245.69
2019-02-14T10:01:07.560Z,96248.34
2019-02-14T10:03:37.230Z,96247.97
2019-02-14T10:06:06.875Z,96235.29
2019-02-14T10:08:37.959Z,96233.78
2019-02-14T10:11:07.719Z,96225.56
2019-02-14T10:13:37.407Z,96226.91
2019-02-14T10:16:07.097Z,96226.91
2019-02-14T10:18:36.850Z,96225.80
2019-02-14T10:21:06.663Z,96217.18
2019-02-14T10:23:36.445Z,96208.99
2019-02-14T10:26:06.227Z,96203.27
2019-02-14T10:28:36.001Z,96183.64
2019-02-14T10:31:05.695Z,96189.41
2019-02-14T10:33:35.420Z,96174.05
2019-02-14T10:36:05.166Z,96179.30
2019-02-14T10:38:34.826Z,96170.83
2019-02-14T10:41:04.636Z,96169.50
2019-02-14T10:43:34.323Z,96158.74
2019-02-14T10:46:04.059Z,96162.58
2019-02-14T10:48:33.806Z,96161.24
2019-02-14T10:51:03.578Z,96159.22
2019-02-14T10:53:33.302Z,96155.83
2019-02-14T10:56:02.929Z,96149.34
2019-02-14T10:58:32.643Z,96149.14
2019-02-14T11:01:02.456Z,96147.81
2019-02-14T11:03:32.141Z,96159.49
2019-02-14T11:06:01.854Z,96153.66
2019-02-14T11:08:32.117Z,96151.09
2019-02-14T11:11:01.822Z,96143.72
2019-02-14T11:13:31.898Z,96139.41
2019-02-14T11:16:01.540Z,96144.37
2019-02-14T11:18:31.222Z,96138.34
2019-02-14T11:21:00.974Z,96144.50
2019-02-14T11:23:30.749Z,96136.80
2019-02-14T11:26:00.434Z,96132.41
2019-02-14T11:28:30.166Z,96126.06
2019-02-14T11:30:59.873Z,96127.70
2019-02-14T11:33:29.626Z,96126.16
2019-02-14T11:35:59.419Z,96121.20
2019-02-14T11:38:29.037Z,96121.84
2019-02-14T11:40:58.832Z,96121.54
2019-02-14T11:43:28.559Z,96109.16
2019-02-14T11:45:58.226Z,96101.48
2019-02-14T11:48:27.950Z,96101.28
2019-02-14T11:50:57.589Z,96091.09
2019-02-14T11:53:29.350Z,96086.06
2019-02-14T11:55:58.959Z,96080.78
2019-02-14T11:58:28.572Z,96081.74
2019-02-14T12:00:58.249Z,96080.92
2019-02-14T12:03:28.075Z,96080.27
2019-02-14T12:05:57.707Z,96076.47
2019-02-14T12:08:27.287Z,96071.73
2019-02-14T12:10:56.998Z,96073.08
2019-02-14T12:13:26.623Z,96070.22
2019-02-14T12:15:56.385Z,96071.73
2019-02-14T12:18:26.146Z,96065.05
2019-02-14T12:20:55.834Z,96068.58
2019-02-14T12:23:25.655Z,96071.73
2019-02-14T12:25:55.309Z,96073.03
2019-02-14T12:28:24.981Z,96070.02
2019-02-14T12:30:54.606Z,96064.75
2019-02-14T12:33:24.298Z,96061.17
2019-02-14T12:35:54.352Z,96064.36
2019-02-14T12:38:24.234Z,96065.70
2019-02-14T12:40:53.933Z,96067.25
2019-02-14T12:43:23.522Z,96063.03
2019-02-14T12:45:53.349Z,96057.63
2019-02-14T12:48:23.076Z,96058.12
2019-02-14T12:50:52.705Z,96063.46
2019-02-14T12:53:22.593Z,96066.01
2019-02-14T12:55:52.360Z,96058.33
2019-02-14T12:58:21.926Z,96061.13
2019-02-14T13:00:51.543Z,96060.74
2019-02-14T13:03:21.227Z,96069.28
2019-02-14T13:05:50.947Z,96065.58
2019-02-14T13:08:20.567Z,96058.77
2019-02-14T13:10:50.373Z,96056.60
2019-02-14T13:13:20.079Z,96044.01
2019-02-14T13:15:49.719Z,96049.79
2019-02-14T13:18:19.441Z,96049.36
2019-02-14T13:20:49.269Z,96048.45
2019-02-14T13:23:19.240Z,96045.44
2019-02-14T13:25:49.085Z,96052.03
2019-02-14T13:28:18.923Z,96044.01
2019-02-14T13:30:48.612Z,96041.20
2019-02-14T13:33:18.282Z,96043.67
2019-02-14T13:35:47.918Z,96042.59
2019-02-14T13:38:17.936Z,96045.44
2019-02-14T13:40:47.622Z,96055.19
2019-02-14T13:43:17.547Z,96058.89
2019-02-14T13:45:47.229Z,96050.56
2019-02-14T13:48:16.878Z,96054.23
2019-02-14T13:50:46.832Z,96051.17
2019-02-14T13:53:16.779Z,96055.19
2019-02-14T13:55:46.748Z,96059.27
2019-02-14T13:58:16.588Z,96047.55
2019-02-14T14:00:46.485Z,96052.72
2019-02-14T14:03:16.451Z,96039.53
2019-02-14T14:05:46.324Z,96044.26
2019-02-14T14:08:16.220Z,96041.33
2019-02-14T14:10:45.890Z,96038.66
2019-02-14T14:13:15.535Z,96038.53
2019-02-14T14:15:45.302Z,96031.89
2019-02-14T14:18:15.056Z,96040.69
2019-02-14T14:20:44.869Z,96037.70
2019-02-14T14:23:14.605Z,96033.95
2019-02-14T14:25:44.245Z,96032.66
2019-02-14T14:28:13.995Z,96024.84
2019-02-14T14:30:43.684Z,96021.53
2019-02-14T14:33:13.289Z,96023.53
2019-02-14T14:35:43.110Z,96023.34
2019-02-14T14:38:12.857Z,96006.92
2019-02-14T14:40:42.688Z,96006.42
2019-02-14T14:43:31.326Z,95999.80
2019-02-14T14:46:26.271Z,96005.77
2019-02-14T14:48:56.028Z,96009.06
2019-02-14T14:51:25.633Z,96005.06
2019-02-14T14:53:55.315Z,96008.14
2019-02-14T14:56:25.101Z,96004.86
2019-02-14T14:58:54.852Z,96007.02
2019-02-14T15:01:24.551Z,96020.09
2019-02-14T15:03:54.174Z,96022.77
2019-02-14T15:06:23.926Z,96018.35
2019-02-14T15:08:53.598Z,96039.95
2019-02-14T15:11:23.505Z,96039.30
2019-02-14T15:13:53.157Z,96033.45
2019-02-14T15:16:22.949Z,96012.33
2019-02-14T15:18:52.650Z,96028.48
2019-02-14T15:21:22.503Z,96026.98
2019-02-14T15:23:52.538Z,96030.02
2019-02-14T15:26:22.394Z,96040.64
2019-02-14T15:28:52.305Z,96051.97
2019-02-14T15:31:22.051Z,96048.66
2019-02-14T15:33:51.862Z,96050.16
2019-02-14T15:36:22.241Z,96051.97
2019-02-14T15:38:52.778Z,96039.61
2019-02-14T15:41:22.430Z,96038.37
2019-02-14T15:43:52.324Z,96043.27
2019-02-14T15:46:22.157Z,96043.84
2019-02-14T15:48:51.965Z,96042.23
2019-02-14T15:51:21.584Z,96038.41
2019-02-14T15:53:51.534Z,96045.08
2019-02-14T15:56:21.268Z,96047.75
2019-02-14T15:58:52.321Z,96050.80
2019-02-14T16:01:22.541Z,96043.09
2019-02-14T16:03:52.447Z,96051.30
2019-02-14T16:06:22.254Z,96049.31
2019-02-14T16:08:52.048Z,96047.61
2019-02-14T16:11:21.846Z,96059.63
2019-02-14T16:13:52.832Z,96055.76
2019-02-14T16:16:24.185Z,96067.26
2019-02-14T16:18:53.911Z,96058.56
2019-02-14T16:21:23.613Z,96065.55
2019-02-14T16:23:55.078Z,96063.16
2019-02-14T16:26:25.115Z,96070.89
2019-02-14T16:28:54.806Z,96057.51
2019-02-14T16:31:24.612Z,96059.50
2019-02-14T16:33:54.312Z,96062.98
2019-02-14T16:36:24.025Z,96068.13
2019-02-14T16:38:53.743Z,96075.28
2019-02-14T16:41:23.586Z,96074.94
2019-02-14T16:43:53.463Z,96075.77
2019-02-14T16:46:23.124Z,96074.18
2019-02-14T16:48:52.986Z,96071.69
2019-02-14T16:51:22.776Z,96071.03
2019-02-14T16:53:52.619Z,96071.55
2019-02-14T16:56:22.304Z,96073.56
2019-02-14T16:58:52.029Z,96065.75
2019-02-14T17:01:22.002Z,96067.40
2019-02-14T17:03:51.801Z,96066.27
2019-02-14T17:06:21.623Z,96070.06
2019-02-14T17:08:51.510Z,96073.56
2019-02-14T17:11:21.148Z,96067.40
2019-02-14T17:13:51.119Z,96060.35
2019-02-14T17:16:20.818Z,96062.89
2019-02-14T17:18:50.676Z,96061.80
2019-02-14T17:21:20.300Z,96058.09
2019-02-14T17:23:50.207Z,96058.75
2019-02-14T17:26:20.163Z,96056.59
2019-02-14T17:28:50.237Z,96059.19
2019-02-14T17:31:22.742Z,96059.34
2019-02-14T17:33:52.703Z,96070.91
2019-02-14T17:36:23.183Z,96065.02
2019-02-14T17:38:53.572Z,96065.98
2019-02-14T17:41:24.249Z,96064.47
2019-02-14T17:43:54.938Z,96066.42
2019-02-14T17:46:29.922Z,96065.53
2019-02-14T17:49:00.526Z,96063.89
2019-02-14T17:51:31.450Z,96051.39
2019-02-14T17:54:01.920Z,96049.68
2019-02-14T17:56:32.766Z,96046.42
2019-02-14T17:59:05.538Z,96051.02
2019-02-14T18:01:38.128Z,96054.20
2019-02-14T18:04:08.884Z,96056.19
2019-02-14T18:06:43.547Z,96060.05
2019-02-14T18:09:16.259Z,96026.26
2019-02-14T18:11:47.304Z,96048.86
2019-02-14T18:14:20.210Z,96036.45
2019-02-14T18:16:53.425Z,96046.45
2019-02-14T18:19:25.945Z,96046.45
2019-02-14T18:21:55.759Z,96045.43
2019-02-14T18:24:26.659Z,96031.70
2019-02-14T18:26:56.919Z,96034.86
2019-02-14T18:29:27.458Z,96034.30
2019-02-14T18:31:57.373Z,96042.69
2019-02-14T18:34:28.748Z,96042.39
2019-02-14T18:36:58.808Z,96044.55
2019-02-14T18:39:30.157Z,96047.52
2019-02-14T18:42:01.331Z,96039.00
2019-02-14T18:44:32.319Z,96044.84
2019-02-14T18:47:02.357Z,96047.86
2019-02-14T18:49:32.392Z,96048.55
2019-02-14T18:52:03.154Z,96045.26
2019-02-14T18:54:33.855Z,96042.63
2019-02-14T18:57:03.849Z,96046.25
2019-02-14T18:59:34.512Z,96034.81
2019-02-14T19:02:04.738Z,96029.78
2019-02-14T19:04:34.741Z,96040.16
2019-02-14T19:07:04.911Z,96029.98
2019-02-14T19:09:36.277Z,96036.53
2019-02-14T19:12:07.769Z,96043.09
2019-02-14T19:14:37.578Z,96036.66
2019-02-14T19:17:07.401Z,96027.20
2019-02-14T19:19:37.357Z,96025.39
2019-02-14T19:22:08.864Z,96023.31
2019-02-14T19:24:40.882Z,96024.82
2019-02-14T19:27:11.134Z,96033.03
2019-02-14T19:29:41.298Z,96026.22
2019-02-14T19:32:11.516Z,96028.31
2019-02-14T19:34:41.711Z,96029.16
2019-02-14T19:37:13.124Z,96024.51
2019-02-14T19:39:43.091Z,96021.63
2019-02-14T19:42:13.013Z,96020.64
2019-02-14T19:44:42.877Z,96019.03
2019-02-14T19:47:12.818Z,96018.72
2019-02-14T19:49:42.504Z,96018.97
2019-02-14T19:52:12.281Z,96017.94
2019-02-14T19:54:42.021Z,96011.50
2019-02-14T19:57:11.661Z,96008.97
2019-02-14T19:59:41.348Z,95994.15
2019-02-14T20:02:11.204Z,96002.33
2019-02-14T20:04:40.819Z,96026.05
2019-02-14T20:07:10.494Z,96023.21
2019-02-14T20:09:41.576Z,96014.69
2019-02-14T20:12:11.333Z,96018.56
2019-02-14T20:14:41.169Z,96009.01
2019-02-14T20:17:10.875Z,96012.19
2019-02-14T20:19:40.612Z,96011.75
2019-02-14T20:22:10.295Z,96015.23
2019-02-14T20:24:40.013Z,96013.59
2019-02-14T20:27:09.811Z,96017.46
2019-02-14T20:29:39.425Z,96014.11
2019-02-14T20:32:09.187Z,96014.89
2019-02-14T20:34:38.857Z,96021.56
2019-02-14T20:37:08.446Z,96020.06
2019-02-14T20:39:38.291Z,96023.04
2019-02-14T20:42:08.079Z,96023.04
2019-02-14T20:44:37.776Z,96024.23
2019-02-14T20:47:07.495Z,96025.20
2019-02-14T20:49:37.369Z,96026.39
2019-02-14T20:52:07.318Z,96027.80
2019-02-14T20:54:36.965Z,96018.90
2019-02-14T20:57:06.670Z,96015.58
2019-02-14T20:59:36.469Z,96007.43
2019-02-14T21:02:08.006Z,96004.97
2019-02-14T21:04:37.778Z,95993.08
2019-02-14T21:07:07.430Z,95997.91
2019-02-14T21:09:37.138Z,95991.23
2019-02-14T21:12:06.791Z,96000.58
2019-02-14T21:14:36.568Z,95999.42
2019-02-14T21:17:06.203Z,95992.50
2019-02-14T21:19:35.888Z,95996.65
2019-02-14T21:22:05.550Z,95992.50
2019-02-14T21:24:35.394Z,95987.55
2019-02-14T21:27:05.065Z,95994.02
2019-02-14T21:29:34.835Z,95992.92
2019-02-14T21:32:04.566Z,95997.37
2019-02-14T21:34:34.244Z,95994.08
2019-02-14T21:37:04.019Z,95994.91
2019-02-14T21:39:33.592Z,95994.08
2019-02-14T21:42:18.771Z,95990.39
2019-02-14T21:44:34.632Z,95991.41
2019-02-14T21:47:04.790Z,95984.39
2019-02-14T21:49:34.470Z,95979.26
2019-02-14T21:52:04.185Z,95978.38
2019-02-14T21:54:33.881Z,95981.34
2019-02-14T21:57:03.613Z,95980.59
2019-02-14T21:59:33.234Z,95983.06
2019-02-14T22:02:05.977Z,95974.44
2019-02-14T22:04:34.472Z,95971.25
2019-02-14T22:07:04.516Z,95965.09
2019-02-14T22:09:34.232Z,95962.73
2019-02-14T22:12:03.932Z,95963.86
2019-02-14T22:14:33.729Z,95969.41
2019-02-14T22:17:03.478Z,95968.45
2019-02-14T22:19:33.135Z,95959.14
2019-02-14T22:22:02.795Z,95960.87
2019-02-14T22:24:32.610Z,95956.77
2019-02-14T22:27:02.341Z,95967.27
2019-02-14T22:29:32.015Z,95958.30
2019-02-14T22:32:01.825Z,95965.56
2019-02-14T22:34:31.428Z,95959.88
2019-02-14T22:37:01.024Z,95968.23
2019-02-14T22:39:30.652Z,95958.92
2019-02-14T22:42:00.452Z,95961.70
2019-02-14T22:44:30.144Z,95960.64
2019-02-14T22:46:59.753Z,95968.34
2019-02-14T22:49:29.582Z,95967.38
2019-02-14T22:51:59.207Z,95959.16
2019-02-14T22:54:28.903Z,95954.20
2019-02-14T22:56:58.520Z,95960.75
2019-02-14T22:59:28.309Z,95959.41
2019-02-14T23:01:57.953Z,95957.91
2019-02-14T23:04:27.635Z,95958.89
2019-02-14T23:06:57.344Z,95954.98
2019-02-14T23:09:26.986Z,95955.16
2019-02-14T23:11:56.762Z,95956.50
2019-02-14T23:14:26.490Z,95962.52
2019-02-14T23:16:56.237Z,95953.69
2019-02-14T23:19:25.816Z,95963.00
2019-02-14T23:21:55.406Z,95971.39
2019-02-14T23:24:25.106Z,95968.37
2019-02-14T23:26:54.824Z,95966.73
2019-02-14T23:29:24.531Z,95966.08
2019-02-14T23:31:54.168Z,95956.74
2019-02-14T23:34:23.950Z,95963.69
2019-02-14T23:36:53.628Z,95963.30
2019-02-14T23:39:23.469Z,95960.70
2019-02-14T23:41:53.203Z,95954.85
2019-02-14T23:44:22.931Z,95951.02
2019-02-14T23:46:52.575Z,95953.52
2019-02-14T23:49:22.252Z,95954.59
2019-02-14T23:51:51.961Z,95954.72
2019-02-14T23:54:21.698Z,95952.43
2019-02-14T23:56:51.379Z,95950.45
2019-02-14T23:59:21.114Z,95948.42
